sensor_id;sensor_type;location;lat;lon;timestamp;temperature;humidity
5834;DHT22;2943;48.012;10.968;2023-03-16T00:00:40;2.60;99.90
5834;DHT22;2943;48.012;10.968;2023-03-16T00:03:07;2.60;99.90
5834;DHT22;2943;48.012;10.968;2023-03-16T00:05:34;2.50;99.90
5834;DHT22;2943;48.012;10.968;2023-03-16T00:08:01;2.50;99.90
5834;DHT22;2943;48.012;10.968;2023-03-16T00:10:28;2.50;99.90
5834;DHT22;2943;48.012;10.968;2023-03-16T00:12:56;2.40;99.90
5834;DHT22;2943;48.012;10.968;2023-03-16T00:15:23;2.40;99.90
5834;DHT22;2943;48.012;10.968;2023-03-16T00:17:50;2.40;99.90
5834;DHT22;2943;48.012;10.968;2023-03-16T00:20:18;2.40;99.90
5834;DHT22;2943;48.012;10.968;2023-03-16T00:22:45;2.30;99.90
5834;DHT22;2943;48.012;10.968;2023-03-16T00:25:13;2.30;99.90
5834;DHT22;2943;48.012;10.968;2023-03-16T00:27:40;2.30;99.90
5834;DHT22;2943;48.012;10.968;2023-03-16T00:30:10;2.30;99.90
5834;DHT22;2943;48.012;10.968;2023-03-16T00:32:37;2.30;99.90
5834;DHT22;2943;48.012;10.968;2023-03-16T00:35:05;2.30;99.90
5834;DHT22;2943;48.012;10.968;2023-03-16T00:37:32;2.30;99.90
5834;DHT22;2943;48.012;10.968;2023-03-16T00:40:00;2.30;99.90
5834;DHT22;2943;48.012;10.968;2023-03-16T00:42:29;2.20;99.90
5834;DHT22;2943;48.012;10.968;2023-03-16T00:44:59;2.20;99.90
5834;DHT22;2943;48.012;10.968;2023-03-16T00:47:29;2.20;99.90
5834;DHT22;2943;48.012;10.968;2023-03-16T00:49:57;2.10;99.90
5834;DHT22;2943;48.012;10.968;2023-03-16T00:52:24;2.10;99.90
5834;DHT22;2943;48.012;10.968;2023-03-16T00:54:53;2.10;99.90
5834;DHT22;2943;48.012;10.968;2023-03-16T00:57:21;2.00;99.90
5834;DHT22;2943;48.012;10.968;2023-03-16T00:59:49;2.00;99.90
5834;DHT22;2943;48.012;10.968;2023-03-16T01:02:17;2.00;99.90
5834;DHT22;2943;48.012;10.968;2023-03-16T01:04:49;2.00;99.90
5834;DHT22;2943;48.012;10.968;2023-03-16T01:07:16;2.00;99.90
5834;DHT22;2943;48.012;10.968;2023-03-16T01:09:43;2.00;99.90
5834;DHT22;2943;48.012;10.968;2023-03-16T01:12:12;2.00;99.90
5834;DHT22;2943;48.012;10.968;2023-03-16T01:14:40;2.00;99.90
5834;DHT22;2943;48.012;10.968;2023-03-16T01:17:08;2.00;99.90
5834;DHT22;2943;48.012;10.968;2023-03-16T01:19:35;2.00;99.90
5834;DHT22;2943;48.012;10.968;2023-03-16T01:22:06;2.00;99.90
5834;DHT22;2943;48.012;10.968;2023-03-16T01:24:34;2.00;99.90
5834;DHT22;2943;48.012;10.968;2023-03-16T01:27:02;2.10;99.90
5834;DHT22;2943;48.012;10.968;2023-03-16T01:29:29;2.10;99.90
5834;DHT22;2943;48.012;10.968;2023-03-16T01:31:55;2.10;99.90
5834;DHT22;2943;48.012;10.968;2023-03-16T01:34:23;2.10;99.90
5834;DHT22;2943;48.012;10.968;2023-03-16T01:36:50;2.10;99.90
5834;DHT22;2943;48.012;10.968;2023-03-16T01:39:18;2.10;99.90
5834;DHT22;2943;48.012;10.968;2023-03-16T01:41:45;2.10;99.90
5834;DHT22;2943;48.012;10.968;2023-03-16T01:44:14;2.10;99.90
5834;DHT22;2943;48.012;10.968;2023-03-16T01:46:41;2.10;99.90
5834;DHT22;2943;48.012;10.968;2023-03-16T01:49:11;2.00;99.90
5834;DHT22;2943;48.012;10.968;2023-03-16T01:51:42;2.00;99.90
5834;DHT22;2943;48.012;10.968;2023-03-16T01:54:19;2.00;99.90
5834;DHT22;2943;48.012;10.968;2023-03-16T01:56:51;2.00;99.90
5834;DHT22;2943;48.012;10.968;2023-03-16T01:59:22;2.00;99.90
5834;DHT22;2943;48.012;10.968;2023-03-16T02:01:51;2.00;99.90
5834;DHT22;2943;48.012;10.968;2023-03-16T02:04:43;2.00;99.90
5834;DHT22;2943;48.012;10.968;2023-03-16T02:07:12;1.90;99.90
5834;DHT22;2943;48.012;10.968;2023-03-16T02:09:44;1.90;99.90
5834;DHT22;2943;48.012;10.968;2023-03-16T02:12:13;1.90;99.90
5834;DHT22;2943;48.012;10.968;2023-03-16T02:14:43;1.80;99.90
5834;DHT22;2943;48.012;10.968;2023-03-16T02:17:11;1.90;99.90
5834;DHT22;2943;48.012;10.968;2023-03-16T02:19:44;1.90;99.90
5834;DHT22;2943;48.012;10.968;2023-03-16T02:22:13;1.80;99.90
5834;DHT22;2943;48.012;10.968;2023-03-16T02:24:40;1.80;99.90
5834;DHT22;2943;48.012;10.968;2023-03-16T02:27:10;1.80;99.90
5834;DHT22;2943;48.012;10.968;2023-03-16T02:30:02;1.70;99.90
5834;DHT22;2943;48.012;10.968;2023-03-16T02:32:31;1.70;99.90
5834;DHT22;2943;48.012;10.968;2023-03-16T02:34:59;1.70;99.90
5834;DHT22;2943;48.012;10.968;2023-03-16T02:37:26;1.70;99.90
5834;DHT22;2943;48.012;10.968;2023-03-16T02:39:53;1.70;99.90
5834;DHT22;2943;48.012;10.968;2023-03-16T02:42:22;1.70;99.90
5834;DHT22;2943;48.012;10.968;2023-03-16T02:44:53;1.70;99.90
5834;DHT22;2943;48.012;10.968;2023-03-16T02:47:29;1.70;99.90
5834;DHT22;2943;48.012;10.968;2023-03-16T02:49:58;1.70;99.90
5834;DHT22;2943;48.012;10.968;2023-03-16T02:52:26;1.60;99.90
5834;DHT22;2943;48.012;10.968;2023-03-16T02:54:53;1.60;99.90
5834;DHT22;2943;48.012;10.968;2023-03-16T02:57:19;1.60;99.90
5834;DHT22;2943;48.012;10.968;2023-03-16T02:59:46;1.60;99.90
5834;DHT22;2943;48.012;10.968;2023-03-16T03:02:13;1.60;99.90
5834;DHT22;2943;48.012;10.968;2023-03-16T03:04:42;1.60;99.90
5834;DHT22;2943;48.012;10.968;2023-03-16T03:07:11;1.50;99.90
5834;DHT22;2943;48.012;10.968;2023-03-16T03:09:39;1.50;99.90
5834;DHT22;2943;48.012;10.968;2023-03-16T03:12:06;1.50;99.90
5834;DHT22;2943;48.012;10.968;2023-03-16T03:14:33;1.50;99.90
5834;DHT22;2943;48.012;10.968;2023-03-16T03:17:03;1.50;99.90
5834;DHT22;2943;48.012;10.968;2023-03-16T03:19:30;1.50;99.90
5834;DHT22;2943;48.012;10.968;2023-03-16T03:22:00;1.50;99.90
5834;DHT22;2943;48.012;10.968;2023-03-16T03:24:28;1.50;99.90
5834;DHT22;2943;48.012;10.968;2023-03-16T03:26:56;1.50;99.90
5834;DHT22;2943;48.012;10.968;2023-03-16T03:29:23;1.50;99.90
5834;DHT22;2943;48.012;10.968;2023-03-16T03:31:49;1.50;99.90
5834;DHT22;2943;48.012;10.968;2023-03-16T03:34:16;1.50;99.90
5834;DHT22;2943;48.012;10.968;2023-03-16T03:36:43;1.50;99.90
5834;DHT22;2943;48.012;10.968;2023-03-16T03:39:11;1.50;99.90
5834;DHT22;2943;48.012;10.968;2023-03-16T03:41:38;1.50;99.90
5834;DHT22;2943;48.012;10.968;2023-03-16T03:44:05;1.50;99.90
5834;DHT22;2943;48.012;10.968;2023-03-16T03:46:32;1.50;99.90
5834;DHT22;2943;48.012;10.968;2023-03-16T03:48:59;1.50;99.90
5834;DHT22;2943;48.012;10.968;2023-03-16T03:51:28;1.50;99.90
5834;DHT22;2943;48.012;10.968;2023-03-16T03:53:55;1.50;99.90
5834;DHT22;2943;48.012;10.968;2023-03-16T03:56:23;1.40;99.90
5834;DHT22;2943;48.012;10.968;2023-03-16T03:58:50;1.40;99.90
5834;DHT22;2943;48.012;10.968;2023-03-16T04:01:17;1.40;99.90
5834;DHT22;2943;48.012;10.968;2023-03-16T04:03:44;1.40;99.90
5834;DHT22;2943;48.012;10.968;2023-03-16T04:06:11;1.30;99.90
5834;DHT22;2943;48.012;10.968;2023-03-16T04:08:37;1.30;99.90
5834;DHT22;2943;48.012;10.968;2023-03-16T04:11:04;1.30;99.90
5834;DHT22;2943;48.012;10.968;2023-03-16T04:13:32;1.20;99.90
5834;DHT22;2943;48.012;10.968;2023-03-16T04:16:00;1.20;99.90
5834;DHT22;2943;48.012;10.968;2023-03-16T04:18:27;1.20;99.90
5834;DHT22;2943;48.012;10.968;2023-03-16T04:20:54;1.20;99.90
5834;DHT22;2943;48.012;10.968;2023-03-16T04:23:21;1.20;99.90
5834;DHT22;2943;48.012;10.968;2023-03-16T04:25:50;1.10;99.90
5834;DHT22;2943;48.012;10.968;2023-03-16T04:28:16;1.10;99.90
5834;DHT22;2943;48.012;10.968;2023-03-16T04:30:44;1.10;99.90
5834;DHT22;2943;48.012;10.968;2023-03-16T04:33:12;1.10;99.90
5834;DHT22;2943;48.012;10.968;2023-03-16T04:35:40;1.10;99.90
5834;DHT22;2943;48.012;10.968;2023-03-16T04:38:07;1.10;99.90
5834;DHT22;2943;48.012;10.968;2023-03-16T04:40:35;1.00;99.90
5834;DHT22;2943;48.012;10.968;2023-03-16T04:43:01;1.00;99.90
5834;DHT22;2943;48.012;10.968;2023-03-16T04:45:28;1.00;99.90
5834;DHT22;2943;48.012;10.968;2023-03-16T04:47:58;0.90;99.90
5834;DHT22;2943;48.012;10.968;2023-03-16T04:50:25;0.90;99.90
5834;DHT22;2943;48.012;10.968;2023-03-16T04:52:52;0.80;99.90
5834;DHT22;2943;48.012;10.968;2023-03-16T04:55:19;0.80;99.90
5834;DHT22;2943;48.012;10.968;2023-03-16T04:57:47;0.80;99.90
5834;DHT22;2943;48.012;10.968;2023-03-16T05:00:14;0.70;99.90
5834;DHT22;2943;48.012;10.968;2023-03-16T05:02:43;0.70;99.90
5834;DHT22;2943;48.012;10.968;2023-03-16T05:05:11;0.70;99.90
5834;DHT22;2943;48.012;10.968;2023-03-16T05:07:39;0.60;99.90
5834;DHT22;2943;48.012;10.968;2023-03-16T05:10:08;0.60;99.90
5834;DHT22;2943;48.012;10.968;2023-03-16T05:12:35;0.50;99.90
5834;DHT22;2943;48.012;10.968;2023-03-16T05:15:02;0.50;99.90
5834;DHT22;2943;48.012;10.968;2023-03-16T05:17:29;0.50;99.90
5834;DHT22;2943;48.012;10.968;2023-03-16T05:19:56;0.60;99.90
5834;DHT22;2943;48.012;10.968;2023-03-16T05:22:24;0.80;99.90
5834;DHT22;2943;48.012;10.968;2023-03-16T05:24:51;0.80;99.90
5834;DHT22;2943;48.012;10.968;2023-03-16T05:27:18;0.80;99.90
5834;DHT22;2943;48.012;10.968;2023-03-16T05:29:45;0.80;99.90
5834;DHT22;2943;48.012;10.968;2023-03-16T05:32:12;0.80;99.90
5834;DHT22;2943;48.012;10.968;2023-03-16T05:34:41;0.80;99.90
5834;DHT22;2943;48.012;10.968;2023-03-16T05:37:09;0.80;99.90
5834;DHT22;2943;48.012;10.968;2023-03-16T05:39:37;0.70;99.90
5834;DHT22;2943;48.012;10.968;2023-03-16T05:42:04;0.70;99.90
5834;DHT22;2943;48.012;10.968;2023-03-16T05:44:31;0.70;99.90
5834;DHT22;2943;48.012;10.968;2023-03-16T05:46:58;0.70;99.90
5834;DHT22;2943;48.012;10.968;2023-03-16T05:49:25;0.70;99.90
5834;DHT22;2943;48.012;10.968;2023-03-16T05:51:52;0.70;99.90
5834;DHT22;2943;48.012;10.968;2023-03-16T05:54:19;0.60;99.90
5834;DHT22;2943;48.012;10.968;2023-03-16T05:56:47;0.60;99.90
5834;DHT22;2943;48.012;10.968;2023-03-16T05:59:14;0.50;99.90
5834;DHT22;2943;48.012;10.968;2023-03-16T06:01:42;0.50;99.90
5834;DHT22;2943;48.012;10.968;2023-03-16T06:04:09;0.50;99.90
5834;DHT22;2943;48.012;10.968;2023-03-16T06:06:36;0.50;99.90
5834;DHT22;2943;48.012;10.968;2023-03-16T06:09:03;0.60;99.90
5834;DHT22;2943;48.012;10.968;2023-03-16T06:11:30;0.60;99.90
5834;DHT22;2943;48.012;10.968;2023-03-16T06:13:58;0.60;99.90
5834;DHT22;2943;48.012;10.968;2023-03-16T06:16:25;0.70;99.90
5834;DHT22;2943;48.012;10.968;2023-03-16T06:18:52;0.70;99.90
5834;DHT22;2943;48.012;10.968;2023-03-16T06:21:20;0.60;99.90
5834;DHT22;2943;48.012;10.968;2023-03-16T06:23:47;0.50;99.90
5834;DHT22;2943;48.012;10.968;2023-03-16T06:26:14;0.60;99.90
5834;DHT22;2943;48.012;10.968;2023-03-16T06:28:41;0.70;99.90
5834;DHT22;2943;48.012;10.968;2023-03-16T06:31:09;0.60;99.90
5834;DHT22;2943;48.012;10.968;2023-03-16T06:33:35;0.60;99.90
5834;DHT22;2943;48.012;10.968;2023-03-16T06:36:03;0.60;99.90
5834;DHT22;2943;48.012;10.968;2023-03-16T06:38:30;0.60;99.90
5834;DHT22;2943;48.012;10.968;2023-03-16T06:40:58;0.60;99.90
5834;DHT22;2943;48.012;10.968;2023-03-16T06:43:26;0.60;99.90
5834;DHT22;2943;48.012;10.968;2023-03-16T06:45:52;0.60;99.90
5834;DHT22;2943;48.012;10.968;2023-03-16T06:48:20;0.50;99.90
5834;DHT22;2943;48.012;10.968;2023-03-16T06:50:47;0.50;99.90
5834;DHT22;2943;48.012;10.968;2023-03-16T06:53:14;0.50;99.90
5834;DHT22;2943;48.012;10.968;2023-03-16T06:55:41;0.50;99.90
5834;DHT22;2943;48.012;10.968;2023-03-16T06:58:08;0.50;99.90
5834;DHT22;2943;48.012;10.968;2023-03-16T07:00:36;0.60;99.90
5834;DHT22;2943;48.012;10.968;2023-03-16T07:03:03;0.60;99.90
5834;DHT22;2943;48.012;10.968;2023-03-16T07:05:31;0.60;99.90
5834;DHT22;2943;48.012;10.968;2023-03-16T07:07:58;0.60;99.90
5834;DHT22;2943;48.012;10.968;2023-03-16T07:10:25;0.60;99.90
5834;DHT22;2943;48.012;10.968;2023-03-16T07:12:53;0.60;99.90
5834;DHT22;2943;48.012;10.968;2023-03-16T07:15:20;0.70;99.90
5834;DHT22;2943;48.012;10.968;2023-03-16T07:17:50;0.70;99.90
5834;DHT22;2943;48.012;10.968;2023-03-16T07:20:17;0.70;99.90
5834;DHT22;2943;48.012;10.968;2023-03-16T07:22:45;0.70;99.90
5834;DHT22;2943;48.012;10.968;2023-03-16T07:25:12;0.80;99.90
5834;DHT22;2943;48.012;10.968;2023-03-16T07:27:39;0.80;99.90
5834;DHT22;2943;48.012;10.968;2023-03-16T07:30:09;0.80;99.90
5834;DHT22;2943;48.012;10.968;2023-03-16T07:32:38;0.90;99.90
5834;DHT22;2943;48.012;10.968;2023-03-16T07:35:06;0.90;99.90
5834;DHT22;2943;48.012;10.968;2023-03-16T07:37:33;0.90;99.90
5834;DHT22;2943;48.012;10.968;2023-03-16T07:40:03;0.90;99.90
5834;DHT22;2943;48.012;10.968;2023-03-16T07:42:33;0.90;99.90
5834;DHT22;2943;48.012;10.968;2023-03-16T07:45:00;1.00;99.90
5834;DHT22;2943;48.012;10.968;2023-03-16T07:47:27;1.00;99.90
5834;DHT22;2943;48.012;10.968;2023-03-16T07:49:55;1.10;99.90
5834;DHT22;2943;48.012;10.968;2023-03-16T07:52:22;1.20;99.90
5834;DHT22;2943;48.012;10.968;2023-03-16T07:54:49;1.20;99.90
5834;DHT22;2943;48.012;10.968;2023-03-16T07:57:18;1.30;99.90
5834;DHT22;2943;48.012;10.968;2023-03-16T07:59:45;1.50;99.90
5834;DHT22;2943;48.012;10.968;2023-03-16T08:02:13;1.50;99.90
5834;DHT22;2943;48.012;10.968;2023-03-16T08:04:40;1.60;99.90
5834;DHT22;2943;48.012;10.968;2023-03-16T08:07:08;1.70;99.90
5834;DHT22;2943;48.012;10.968;2023-03-16T08:09:35;1.70;99.90
5834;DHT22;2943;48.012;10.968;2023-03-16T08:12:02;1.80;99.90
5834;DHT22;2943;48.012;10.968;2023-03-16T08:14:31;1.80;99.90
5834;DHT22;2943;48.012;10.968;2023-03-16T08:17:00;1.90;99.90
5834;DHT22;2943;48.012;10.968;2023-03-16T08:19:26;2.00;99.90
5834;DHT22;2943;48.012;10.968;2023-03-16T08:21:54;2.10;99.90
5834;DHT22;2943;48.012;10.968;2023-03-16T08:24:22;2.10;99.90
5834;DHT22;2943;48.012;10.968;2023-03-16T08:26:50;2.20;99.90
5834;DHT22;2943;48.012;10.968;2023-03-16T08:29:18;2.20;99.90
5834;DHT22;2943;48.012;10.968;2023-03-16T08:31:48;2.30;99.90
5834;DHT22;2943;48.012;10.968;2023-03-16T08:34:18;2.40;99.90
5834;DHT22;2943;48.012;10.968;2023-03-16T08:36:44;2.50;99.90
5834;DHT22;2943;48.012;10.968;2023-03-16T08:39:12;2.60;99.90
5834;DHT22;2943;48.012;10.968;2023-03-16T08:41:39;2.70;99.90
5834;DHT22;2943;48.012;10.968;2023-03-16T08:44:07;2.80;99.90
5834;DHT22;2943;48.012;10.968;2023-03-16T08:46:35;2.90;99.90
5834;DHT22;2943;48.012;10.968;2023-03-16T08:49:04;2.90;99.90
5834;DHT22;2943;48.012;10.968;2023-03-16T08:51:31;3.10;99.90
5834;DHT22;2943;48.012;10.968;2023-03-16T08:54:01;3.10;99.90
5834;DHT22;2943;48.012;10.968;2023-03-16T08:56:28;3.20;99.90
5834;DHT22;2943;48.012;10.968;2023-03-16T08:58:56;3.30;99.90
5834;DHT22;2943;48.012;10.968;2023-03-16T09:01:24;3.50;99.90
5834;DHT22;2943;48.012;10.968;2023-03-16T09:03:52;3.60;99.90
5834;DHT22;2943;48.012;10.968;2023-03-16T09:06:21;3.70;99.90
5834;DHT22;2943;48.012;10.968;2023-03-16T09:08:49;3.80;99.90
5834;DHT22;2943;48.012;10.968;2023-03-16T09:11:17;4.00;99.90
5834;DHT22;2943;48.012;10.968;2023-03-16T09:13:46;4.00;99.90
5834;DHT22;2943;48.012;10.968;2023-03-16T09:16:15;4.10;99.90
5834;DHT22;2943;48.012;10.968;2023-03-16T09:18:42;4.10;99.90
5834;DHT22;2943;48.012;10.968;2023-03-16T09:21:11;4.10;99.90
5834;DHT22;2943;48.012;10.968;2023-03-16T09:23:40;4.20;99.90
5834;DHT22;2943;48.012;10.968;2023-03-16T09:26:10;4.40;99.90
5834;DHT22;2943;48.012;10.968;2023-03-16T09:28:38;4.40;99.90
5834;DHT22;2943;48.012;10.968;2023-03-16T09:31:07;4.40;99.90
5834;DHT22;2943;48.012;10.968;2023-03-16T09:33:36;4.50;99.90
5834;DHT22;2943;48.012;10.968;2023-03-16T09:36:03;4.60;99.90
5834;DHT22;2943;48.012;10.968;2023-03-16T09:38:31;4.70;99.90
5834;DHT22;2943;48.012;10.968;2023-03-16T09:41:02;4.70;99.90
5834;DHT22;2943;48.012;10.968;2023-03-16T09:43:49;4.80;99.90
5834;DHT22;2943;48.012;10.968;2023-03-16T09:46:24;4.80;99.90
5834;DHT22;2943;48.012;10.968;2023-03-16T09:48:54;4.90;99.90
5834;DHT22;2943;48.012;10.968;2023-03-16T09:51:32;4.90;99.90
5834;DHT22;2943;48.012;10.968;2023-03-16T09:54:02;5.00;99.90
5834;DHT22;2943;48.012;10.968;2023-03-16T09:56:38;5.10;99.90
5834;DHT22;2943;48.012;10.968;2023-03-16T09:59:10;5.10;99.90
5834;DHT22;2943;48.012;10.968;2023-03-16T10:01:45;5.20;99.90
5834;DHT22;2943;48.012;10.968;2023-03-16T10:04:28;5.30;99.90
5834;DHT22;2943;48.012;10.968;2023-03-16T10:07:05;5.30;99.90
5834;DHT22;2943;48.012;10.968;2023-03-16T10:09:44;5.40;99.90
5834;DHT22;2943;48.012;10.968;2023-03-16T10:12:15;5.40;99.90
5834;DHT22;2943;48.012;10.968;2023-03-16T10:14:47;5.50;99.90
5834;DHT22;2943;48.012;10.968;2023-03-16T10:17:17;5.60;99.90
5834;DHT22;2943;48.012;10.968;2023-03-16T10:19:47;5.60;99.90
5834;DHT22;2943;48.012;10.968;2023-03-16T10:22:19;5.60;99.90
5834;DHT22;2943;48.012;10.968;2023-03-16T10:24:58;5.60;99.90
5834;DHT22;2943;48.012;10.968;2023-03-16T10:27:30;5.80;99.90
5834;DHT22;2943;48.012;10.968;2023-03-16T10:29:58;5.80;99.90
5834;DHT22;2943;48.012;10.968;2023-03-16T10:32:30;5.80;99.90
5834;DHT22;2943;48.012;10.968;2023-03-16T10:35:02;5.90;99.90
5834;DHT22;2943;48.012;10.968;2023-03-16T10:37:31;6.00;99.90
5834;DHT22;2943;48.012;10.968;2023-03-16T10:39:58;6.00;99.90
5834;DHT22;2943;48.012;10.968;2023-03-16T10:42:26;6.10;99.90
5834;DHT22;2943;48.012;10.968;2023-03-16T10:44:58;6.10;99.90
5834;DHT22;2943;48.012;10.968;2023-03-16T10:47:28;6.20;99.90
5834;DHT22;2943;48.012;10.968;2023-03-16T10:49:56;6.30;99.90
5834;DHT22;2943;48.012;10.968;2023-03-16T10:52:30;6.40;99.90
5834;DHT22;2943;48.012;10.968;2023-03-16T10:55:05;6.40;99.90
5834;DHT22;2943;48.012;10.968;2023-03-16T10:57:34;6.40;99.90
5834;DHT22;2943;48.012;10.968;2023-03-16T11:00:06;6.50;99.90
5834;DHT22;2943;48.012;10.968;2023-03-16T11:02:45;6.60;99.90
5834;DHT22;2943;48.012;10.968;2023-03-16T11:05:18;6.60;99.90
5834;DHT22;2943;48.012;10.968;2023-03-16T11:07:56;6.70;99.90
5834;DHT22;2943;48.012;10.968;2023-03-16T11:10:29;6.70;99.90
5834;DHT22;2943;48.012;10.968;2023-03-16T11:13:08;6.80;99.90
5834;DHT22;2943;48.012;10.968;2023-03-16T11:15:43;6.90;99.90
5834;DHT22;2943;48.012;10.968;2023-03-16T11:18:21;7.00;99.90
5834;DHT22;2943;48.012;10.968;2023-03-16T11:20:51;7.10;99.90
5834;DHT22;2943;48.012;10.968;2023-03-16T11:23:20;7.20;99.90
5834;DHT22;2943;48.012;10.968;2023-03-16T11:25:52;7.20;99.90
5834;DHT22;2943;48.012;10.968;2023-03-16T11:28:31;7.30;99.90
5834;DHT22;2943;48.012;10.968;2023-03-16T11:31:10;7.40;99.90
5834;DHT22;2943;48.012;10.968;2023-03-16T11:33:39;7.40;99.90
5834;DHT22;2943;48.012;10.968;2023-03-16T11:36:20;7.50;99.90
5834;DHT22;2943;48.012;10.968;2023-03-16T11:38:56;7.60;99.90
5834;DHT22;2943;48.012;10.968;2023-03-16T11:41:31;7.60;99.90
5834;DHT22;2943;48.012;10.968;2023-03-16T11:44:09;7.60;99.90
5834;DHT22;2943;48.012;10.968;2023-03-16T11:46:43;7.70;99.90
5834;DHT22;2943;48.012;10.968;2023-03-16T11:49:39;7.70;99.90
5834;DHT22;2943;48.012;10.968;2023-03-16T11:52:15;7.70;99.90
5834;DHT22;2943;48.012;10.968;2023-03-16T11:54:55;7.80;99.90
5834;DHT22;2943;48.012;10.968;2023-03-16T11:57:32;7.80;99.90
5834;DHT22;2943;48.012;10.968;2023-03-16T12:00:12;7.90;99.90
5834;DHT22;2943;48.012;10.968;2023-03-16T12:02:57;7.90;99.90
5834;DHT22;2943;48.012;10.968;2023-03-16T12:05:38;8.00;99.90
5834;DHT22;2943;48.012;10.968;2023-03-16T12:08:24;8.00;99.90
5834;DHT22;2943;48.012;10.968;2023-03-16T12:10:58;8.10;99.90
5834;DHT22;2943;48.012;10.968;2023-03-16T12:13:36;8.20;99.90
5834;DHT22;2943;48.012;10.968;2023-03-16T12:16:12;8.20;99.90
5834;DHT22;2943;48.012;10.968;2023-03-16T12:18:45;8.30;99.90
5834;DHT22;2943;48.012;10.968;2023-03-16T12:21:15;8.30;99.90
5834;DHT22;2943;48.012;10.968;2023-03-16T12:23:49;8.40;99.90
5834;DHT22;2943;48.012;10.968;2023-03-16T12:26:18;8.40;99.90
5834;DHT22;2943;48.012;10.968;2023-03-16T12:28:46;8.40;99.90
5834;DHT22;2943;48.012;10.968;2023-03-16T12:31:16;8.50;99.90
5834;DHT22;2943;48.012;10.968;2023-03-16T12:33:55;8.50;99.90
5834;DHT22;2943;48.012;10.968;2023-03-16T12:37:00;8.60;99.90
5834;DHT22;2943;48.012;10.968;2023-03-16T12:39:39;8.70;99.90
5834;DHT22;2943;48.012;10.968;2023-03-16T12:42:31;8.60;99.90
5834;DHT22;2943;48.012;10.968;2023-03-16T12:45:03;8.70;99.90
5834;DHT22;2943;48.012;10.968;2023-03-16T12:47:37;8.70;99.90
5834;DHT22;2943;48.012;10.968;2023-03-16T12:50:11;8.80;99.90
5834;DHT22;2943;48.012;10.968;2023-03-16T12:52:40;9.00;99.90
5834;DHT22;2943;48.012;10.968;2023-03-16T12:55:13;9.00;99.90
5834;DHT22;2943;48.012;10.968;2023-03-16T12:57:42;9.10;99.90
5834;DHT22;2943;48.012;10.968;2023-03-16T13:00:11;9.10;99.90
5834;DHT22;2943;48.012;10.968;2023-03-16T13:02:41;9.10;99.90
5834;DHT22;2943;48.012;10.968;2023-03-16T13:05:13;9.10;99.90
5834;DHT22;2943;48.012;10.968;2023-03-16T13:07:46;9.20;99.90
5834;DHT22;2943;48.012;10.968;2023-03-16T13:10:14;9.20;99.90
5834;DHT22;2943;48.012;10.968;2023-03-16T13:12:42;9.30;99.90
5834;DHT22;2943;48.012;10.968;2023-03-16T13:15:25;9.30;99.90
5834;DHT22;2943;48.012;10.968;2023-03-16T13:18:04;9.30;99.90
5834;DHT22;2943;48.012;10.968;2023-03-16T13:20:33;9.40;99.90
5834;DHT22;2943;48.012;10.968;2023-03-16T13:23:19;9.40;99.90
5834;DHT22;2943;48.012;10.968;2023-03-16T13:26:00;9.50;99.90
5834;DHT22;2943;48.012;10.968;2023-03-16T13:28:30;9.40;99.90
5834;DHT22;2943;48.012;10.968;2023-03-16T13:30:57;9.40;99.90
5834;DHT22;2943;48.012;10.968;2023-03-16T13:33:26;9.50;99.90
5834;DHT22;2943;48.012;10.968;2023-03-16T13:35:56;9.60;99.90
5834;DHT22;2943;48.012;10.968;2023-03-16T13:38:26;9.60;99.90
5834;DHT22;2943;48.012;10.968;2023-03-16T13:40:55;9.70;99.90
5834;DHT22;2943;48.012;10.968;2023-03-16T13:43:24;9.80;99.90
5834;DHT22;2943;48.012;10.968;2023-03-16T13:45:53;9.80;99.90
5834;DHT22;2943;48.012;10.968;2023-03-16T13:48:20;9.80;99.90
5834;DHT22;2943;48.012;10.968;2023-03-16T13:50:50;9.90;99.90
5834;DHT22;2943;48.012;10.968;2023-03-16T13:53:21;9.90;99.90
5834;DHT22;2943;48.012;10.968;2023-03-16T13:55:50;9.90;99.90
5834;DHT22;2943;48.012;10.968;2023-03-16T13:58:22;9.90;99.90
5834;DHT22;2943;48.012;10.968;2023-03-16T14:00:54;9.90;99.90
5834;DHT22;2943;48.012;10.968;2023-03-16T14:03:22;10.00;99.90
5834;DHT22;2943;48.012;10.968;2023-03-16T14:05:49;10.10;99.90
5834;DHT22;2943;48.012;10.968;2023-03-16T14:08:19;10.00;99.90
5834;DHT22;2943;48.012;10.968;2023-03-16T14:10:48;10.10;99.90
5834;DHT22;2943;48.012;10.968;2023-03-16T14:13:25;10.10;99.90
5834;DHT22;2943;48.012;10.968;2023-03-16T14:15:59;10.10;99.90
5834;DHT22;2943;48.012;10.968;2023-03-16T14:18:31;10.20;99.90
5834;DHT22;2943;48.012;10.968;2023-03-16T14:21:05;10.20;99.90
5834;DHT22;2943;48.012;10.968;2023-03-16T14:23:37;10.10;99.90
5834;DHT22;2943;48.012;10.968;2023-03-16T14:26:10;10.10;99.90
5834;DHT22;2943;48.012;10.968;2023-03-16T14:28:38;10.10;99.90
5834;DHT22;2943;48.012;10.968;2023-03-16T14:31:09;10.10;99.90
5834;DHT22;2943;48.012;10.968;2023-03-16T14:33:37;10.10;99.90
5834;DHT22;2943;48.012;10.968;2023-03-16T14:36:10;10.20;99.90
5834;DHT22;2943;48.012;10.968;2023-03-16T14:38:39;10.20;99.90
5834;DHT22;2943;48.012;10.968;2023-03-16T14:41:20;10.20;99.90
5834;DHT22;2943;48.012;10.968;2023-03-16T14:43:50;10.20;99.90
5834;DHT22;2943;48.012;10.968;2023-03-16T14:46:25;10.20;99.90
5834;DHT22;2943;48.012;10.968;2023-03-16T14:49:00;10.30;99.90
5834;DHT22;2943;48.012;10.968;2023-03-16T14:51:29;10.30;99.90
5834;DHT22;2943;48.012;10.968;2023-03-16T14:54:04;10.20;99.90
5834;DHT22;2943;48.012;10.968;2023-03-16T14:56:32;10.20;99.90
5834;DHT22;2943;48.012;10.968;2023-03-16T14:59:01;10.20;99.90
5834;DHT22;2943;48.012;10.968;2023-03-16T15:01:29;10.20;99.90
5834;DHT22;2943;48.012;10.968;2023-03-16T15:03:56;10.20;99.90
5834;DHT22;2943;48.012;10.968;2023-03-16T15:06:23;10.20;99.90
5834;DHT22;2943;48.012;10.968;2023-03-16T15:08:52;10.20;99.90
5834;DHT22;2943;48.012;10.968;2023-03-16T15:11:27;10.30;99.90
5834;DHT22;2943;48.012;10.968;2023-03-16T15:13:57;10.30;99.90
5834;DHT22;2943;48.012;10.968;2023-03-16T15:16:52;10.20;99.90
5834;DHT22;2943;48.012;10.968;2023-03-16T15:19:19;10.20;99.90
5834;DHT22;2943;48.012;10.968;2023-03-16T15:21:48;10.20;99.90
5834;DHT22;2943;48.012;10.968;2023-03-16T15:24:15;10.20;99.90
5834;DHT22;2943;48.012;10.968;2023-03-16T15:26:43;10.20;99.90
5834;DHT22;2943;48.012;10.968;2023-03-16T15:29:10;10.10;99.90
5834;DHT22;2943;48.012;10.968;2023-03-16T15:31:41;10.10;99.90
5834;DHT22;2943;48.012;10.968;2023-03-16T15:34:10;10.10;99.90
5834;DHT22;2943;48.012;10.968;2023-03-16T15:36:37;10.10;99.90
5834;DHT22;2943;48.012;10.968;2023-03-16T15:39:04;10.10;99.90
5834;DHT22;2943;48.012;10.968;2023-03-16T15:41:33;10.10;99.90
5834;DHT22;2943;48.012;10.968;2023-03-16T15:44:00;10.10;99.90
5834;DHT22;2943;48.012;10.968;2023-03-16T15:46:27;10.10;99.90
5834;DHT22;2943;48.012;10.968;2023-03-16T15:48:54;10.10;99.90
5834;DHT22;2943;48.012;10.968;2023-03-16T15:51:25;10.10;99.90
5834;DHT22;2943;48.012;10.968;2023-03-16T15:53:56;10.10;99.90
5834;DHT22;2943;48.012;10.968;2023-03-16T15:56:27;10.10;99.90
5834;DHT22;2943;48.012;10.968;2023-03-16T15:58:58;10.10;99.90
5834;DHT22;2943;48.012;10.968;2023-03-16T16:01:26;10.10;99.90
5834;DHT22;2943;48.012;10.968;2023-03-16T16:03:55;10.10;99.90
5834;DHT22;2943;48.012;10.968;2023-03-16T16:06:25;10.10;99.90
5834;DHT22;2943;48.012;10.968;2023-03-16T16:08:53;10.00;99.90
5834;DHT22;2943;48.012;10.968;2023-03-16T16:11:22;10.10;99.90
5834;DHT22;2943;48.012;10.968;2023-03-16T16:13:50;10.00;99.90
5834;DHT22;2943;48.012;10.968;2023-03-16T16:16:18;10.00;99.90